sensor_id;sensor_type;location;lat;lon;timestamp;P1;durP1;ratioP1;P2;durP2;ratioP2
69203;SDS011;56317;27.658;85.326;2023-11-21T00:00:01;42.80;;;22.13;;
69203;SDS011;56317;27.658;85.326;2023-11-21T00:02:35;46.00;;;23.13;;
69203;SDS011;56317;27.658;85.326;2023-11-21T00:05:06;37.55;;;21.42;;
69203;SDS011;56317;27.658;85.326;2023-11-21T00:07:35;45.83;;;22.55;;
69203;SDS011;56317;27.658;85.326;2023-11-21T00:10:03;48.03;;;23.00;;
69203;SDS011;56317;27.658;85.326;2023-11-21T00:12:36;38.70;;;21.50;;
69203;SDS011;56317;27.658;85.326;2023-11-21T00:15:03;44.05;;;23.02;;
69203;SDS011;56317;27.658;85.326;2023-11-21T00:17:31;44.08;;;22.67;;
69203;SDS011;56317;27.658;85.326;2023-11-21T00:19:58;43.25;;;23.85;;
69203;SDS011;56317;27.658;85.326;2023-11-21T00:22:25;40.33;;;23.08;;
69203;SDS011;56317;27.658;85.326;2023-11-21T00:24:52;40.70;;;22.52;;
69203;SDS011;56317;27.658;85.326;2023-11-21T00:27:19;48.40;;;25.73;;
69203;SDS011;56317;27.658;85.326;2023-11-21T00:29:46;57.67;;;26.10;;
69203;SDS011;56317;27.658;85.326;2023-11-21T00:32:13;55.97;;;25.63;;
69203;SDS011;56317;27.658;85.326;2023-11-21T00:34:40;56.05;;;26.73;;
69203;SDS011;56317;27.658;85.326;2023-11-21T00:37:07;50.50;;;26.75;;
69203;SDS011;56317;27.658;85.326;2023-11-21T00:39:34;52.58;;;28.48;;
69203;SDS011;56317;27.658;85.326;2023-11-21T00:42:01;59.10;;;30.05;;
69203;SDS011;56317;27.658;85.326;2023-11-21T00:44:30;60.90;;;28.92;;
69203;SDS011;56317;27.658;85.326;2023-11-21T00:46:57;59.33;;;30.63;;
69203;SDS011;56317;27.658;85.326;2023-11-21T00:49:24;68.22;;;31.70;;
69203;SDS011;56317;27.658;85.326;2023-11-21T00:51:51;64.30;;;30.67;;
69203;SDS011;56317;27.658;85.326;2023-11-21T00:54:18;62.78;;;32.88;;
69203;SDS011;56317;27.658;85.326;2023-11-21T00:56:45;68.80;;;36.80;;
69203;SDS011;56317;27.658;85.326;2023-11-21T00:59:15;66.60;;;32.50;;
69203;SDS011;56317;27.658;85.326;2023-11-21T01:01:42;61.20;;;33.72;;
69203;SDS011;56317;27.658;85.326;2023-11-21T01:04:09;61.47;;;34.03;;
69203;SDS011;56317;27.658;85.326;2023-11-21T01:06:36;58.75;;;35.00;;
69203;SDS011;56317;27.658;85.326;2023-11-21T01:09:05;68.55;;;33.90;;
69203;SDS011;56317;27.658;85.326;2023-11-21T01:11:36;65.68;;;34.40;;
69203;SDS011;56317;27.658;85.326;2023-11-21T01:14:04;58.30;;;32.50;;
69203;SDS011;56317;27.658;85.326;2023-11-21T01:16:34;56.25;;;32.35;;
69203;SDS011;56317;27.658;85.326;2023-11-21T01:19:01;54.83;;;32.00;;
69203;SDS011;56317;27.658;85.326;2023-11-21T01:21:30;64.60;;;33.22;;
69203;SDS011;56317;27.658;85.326;2023-11-21T01:23:57;63.13;;;32.28;;
69203;SDS011;56317;27.658;85.326;2023-11-21T01:26:24;63.58;;;32.58;;
69203;SDS011;56317;27.658;85.326;2023-11-21T01:28:51;58.88;;;32.72;;
69203;SDS011;56317;27.658;85.326;2023-11-21T01:31:23;100.10;;;46.28;;
69203;SDS011;56317;27.658;85.326;2023-11-21T01:33:52;59.22;;;35.03;;
69203;SDS011;56317;27.658;85.326;2023-11-21T01:36:20;67.22;;;35.08;;
69203;SDS011;56317;27.658;85.326;2023-11-21T01:38:47;105.47;;;50.10;;
69203;SDS011;56317;27.658;85.326;2023-11-21T01:41:14;60.45;;;32.35;;
69203;SDS011;56317;27.658;85.326;2023-11-21T01:43:42;52.15;;;28.20;;
69203;SDS011;56317;27.658;85.326;2023-11-21T01:46:09;54.58;;;28.67;;
69203;SDS011;56317;27.658;85.326;2023-11-21T01:48:36;53.00;;;28.15;;
69203;SDS011;56317;27.658;85.326;2023-11-21T01:51:04;56.78;;;28.98;;
69203;SDS011;56317;27.658;85.326;2023-11-21T01:53:31;53.47;;;28.85;;
69203;SDS011;56317;27.658;85.326;2023-11-21T01:55:58;53.33;;;27.65;;
69203;SDS011;56317;27.658;85.326;2023-11-21T01:58:25;54.28;;;31.02;;
69203;SDS011;56317;27.658;85.326;2023-11-21T02:00:52;61.47;;;30.73;;
69203;SDS011;56317;27.658;85.326;2023-11-21T02:03:20;54.95;;;31.88;;
69203;SDS011;56317;27.658;85.326;2023-11-21T02:05:47;56.17;;;31.05;;
69203;SDS011;56317;27.658;85.326;2023-11-21T02:08:15;57.45;;;30.30;;
69203;SDS011;56317;27.658;85.326;2023-11-21T02:10:42;58.05;;;29.83;;
69203;SDS011;56317;27.658;85.326;2023-11-21T02:13:09;54.25;;;28.38;;
69203;SDS011;56317;27.658;85.326;2023-11-21T02:15:36;53.53;;;28.60;;
69203;SDS011;56317;27.658;85.326;2023-11-21T02:18:04;58.83;;;29.67;;
69203;SDS011;56317;27.658;85.326;2023-11-21T02:20:32;54.17;;;29.95;;
69203;SDS011;56317;27.658;85.326;2023-11-21T02:23:02;57.85;;;30.33;;
69203;SDS011;56317;27.658;85.326;2023-11-21T02:25:31;47.45;;;28.77;;
69203;SDS011;56317;27.658;85.326;2023-11-21T02:28:00;50.90;;;27.67;;
69203;SDS011;56317;27.658;85.326;2023-11-21T02:30:28;55.65;;;26.60;;
69203;SDS011;56317;27.658;85.326;2023-11-21T02:32:59;49.83;;;25.88;;
69203;SDS011;56317;27.658;85.326;2023-11-21T02:35:27;52.97;;;26.75;;
69203;SDS011;56317;27.658;85.326;2023-11-21T02:37:58;47.22;;;25.90;;
69203;SDS011;56317;27.658;85.326;2023-11-21T02:40:25;37.05;;;22.67;;
69203;SDS011;56317;27.658;85.326;2023-11-21T02:42:53;45.15;;;24.70;;
69203;SDS011;56317;27.658;85.326;2023-11-21T02:45:20;40.67;;;24.17;;
69203;SDS011;56317;27.658;85.326;2023-11-21T02:47:47;43.90;;;25.58;;
69203;SDS011;56317;27.658;85.326;2023-11-21T02:50:14;44.75;;;25.15;;
69203;SDS011;56317;27.658;85.326;2023-11-21T02:52:44;48.63;;;25.90;;
69203;SDS011;56317;27.658;85.326;2023-11-21T02:55:12;41.85;;;23.98;;
69203;SDS011;56317;27.658;85.326;2023-11-21T02:57:39;44.42;;;25.42;;
69203;SDS011;56317;27.658;85.326;2023-11-21T03:00:08;44.55;;;24.17;;
69203;SDS011;56317;27.658;85.326;2023-11-21T03:02:38;51.30;;;27.92;;
69203;SDS011;56317;27.658;85.326;2023-11-21T03:05:06;54.72;;;29.73;;
69203;SDS011;56317;27.658;85.326;2023-11-21T03:07:36;51.72;;;29.75;;
69203;SDS011;56317;27.658;85.326;2023-11-21T03:10:04;49.38;;;28.05;;
69203;SDS011;56317;27.658;85.326;2023-11-21T03:12:39;52.17;;;29.75;;
69203;SDS011;56317;27.658;85.326;2023-11-21T03:15:07;46.08;;;26.92;;
69203;SDS011;56317;27.658;85.326;2023-11-21T03:17:35;44.20;;;26.15;;
69203;SDS011;56317;27.658;85.326;2023-11-21T03:20:03;44.50;;;24.20;;
69203;SDS011;56317;27.658;85.326;2023-11-21T03:22:31;46.35;;;24.77;;
69203;SDS011;56317;27.658;85.326;2023-11-21T03:24:58;46.47;;;24.83;;
69203;SDS011;56317;27.658;85.326;2023-11-21T03:27:26;43.25;;;25.60;;
69203;SDS011;56317;27.658;85.326;2023-11-21T03:29:53;45.42;;;25.90;;
69203;SDS011;56317;27.658;85.326;2023-11-21T03:32:20;41.58;;;22.65;;
69203;SDS011;56317;27.658;85.326;2023-11-21T03:34:54;44.55;;;22.95;;
69203;SDS011;56317;27.658;85.326;2023-11-21T03:37:23;37.97;;;21.98;;
69203;SDS011;56317;27.658;85.326;2023-11-21T03:39:53;35.05;;;19.27;;
69203;SDS011;56317;27.658;85.326;2023-11-21T03:42:24;34.78;;;17.48;;
69203;SDS011;56317;27.658;85.326;2023-11-21T03:44:54;33.50;;;17.38;;
69203;SDS011;56317;27.658;85.326;2023-11-21T03:47:21;29.38;;;17.30;;
69203;SDS011;56317;27.658;85.326;2023-11-21T03:49:48;34.78;;;19.13;;
69203;SDS011;56317;27.658;85.326;2023-11-21T03:52:15;36.38;;;18.08;;
69203;SDS011;56317;27.658;85.326;2023-11-21T03:54:43;33.92;;;17.90;;
69203;SDS011;56317;27.658;85.326;2023-11-21T03:57:11;32.13;;;18.55;;
69203;SDS011;56317;27.658;85.326;2023-11-21T03:59:42;47.47;;;22.83;;
69203;SDS011;56317;27.658;85.326;2023-11-21T04:02:10;37.42;;;19.63;;
69203;SDS011;56317;27.658;85.326;2023-11-21T04:04:37;35.17;;;18.40;;
69203;SDS011;56317;27.658;85.326;2023-11-21T04:07:09;33.20;;;18.07;;
69203;SDS011;56317;27.658;85.326;2023-11-21T04:09:39;43.13;;;23.25;;
69203;SDS011;56317;27.658;85.326;2023-11-21T04:12:07;47.45;;;22.40;;
69203;SDS011;56317;27.658;85.326;2023-11-21T04:14:35;38.10;;;21.52;;
69203;SDS011;56317;27.658;85.326;2023-11-21T04:17:02;43.42;;;22.65;;
69203;SDS011;56317;27.658;85.326;2023-11-21T04:19:29;46.95;;;22.70;;
69203;SDS011;56317;27.658;85.326;2023-11-21T04:21:56;47.10;;;23.73;;
69203;SDS011;56317;27.658;85.326;2023-11-21T04:24:24;38.55;;;22.27;;
69203;SDS011;56317;27.658;85.326;2023-11-21T04:26:51;42.10;;;22.58;;
69203;SDS011;56317;27.658;85.326;2023-11-21T04:29:19;42.17;;;22.23;;
69203;SDS011;56317;27.658;85.326;2023-11-21T04:31:46;41.70;;;23.00;;
69203;SDS011;56317;27.658;85.326;2023-11-21T04:34:14;42.80;;;24.52;;
69203;SDS011;56317;27.658;85.326;2023-11-21T04:36:42;41.83;;;24.95;;
69203;SDS011;56317;27.658;85.326;2023-11-21T04:39:09;46.03;;;23.35;;
69203;SDS011;56317;27.658;85.326;2023-11-21T04:41:36;39.85;;;24.15;;
69203;SDS011;56317;27.658;85.326;2023-11-21T04:44:08;44.83;;;22.45;;
69203;SDS011;56317;27.658;85.326;2023-11-21T04:46:35;45.60;;;22.90;;
69203;SDS011;56317;27.658;85.326;2023-11-21T04:49:02;33.88;;;21.80;;
69203;SDS011;56317;27.658;85.326;2023-11-21T04:51:30;37.50;;;22.85;;
69203;SDS011;56317;27.658;85.326;2023-11-21T04:54:01;39.47;;;23.48;;
69203;SDS011;56317;27.658;85.326;2023-11-21T04:56:30;48.63;;;26.25;;
69203;SDS011;56317;27.658;85.326;2023-11-21T04:58:57;46.78;;;25.35;;
69203;SDS011;56317;27.658;85.326;2023-11-21T05:01:24;41.67;;;24.23;;
69203;SDS011;56317;27.658;85.326;2023-11-21T05:03:52;41.60;;;24.50;;
69203;SDS011;56317;27.658;85.326;2023-11-21T05:06:21;48.15;;;25.33;;
69203;SDS011;56317;27.658;85.326;2023-11-21T05:08:50;45.15;;;25.63;;
69203;SDS011;56317;27.658;85.326;2023-11-21T05:11:25;42.78;;;25.33;;
69203;SDS011;56317;27.658;85.326;2023-11-21T05:13:53;35.70;;;23.23;;
69203;SDS011;56317;27.658;85.326;2023-11-21T05:16:25;39.50;;;23.80;;
69203;SDS011;56317;27.658;85.326;2023-11-21T05:18:55;36.60;;;21.50;;
69203;SDS011;56317;27.658;85.326;2023-11-21T05:23:53;29.50;;;16.13;;
69203;SDS011;56317;27.658;85.326;2023-11-21T05:26:20;26.67;;;14.18;;
69203;SDS011;56317;27.658;85.326;2023-11-21T05:28:47;26.67;;;14.02;;
69203;SDS011;56317;27.658;85.326;2023-11-21T05:31:14;29.23;;;13.73;;
69203;SDS011;56317;27.658;85.326;2023-11-21T05:33:41;26.80;;;13.57;;
69203;SDS011;56317;27.658;85.326;2023-11-21T05:36:11;24.42;;;12.95;;
69203;SDS011;56317;27.658;85.326;2023-11-21T05:38:38;26.45;;;12.80;;
69203;SDS011;56317;27.658;85.326;2023-11-21T05:41:07;24.58;;;12.75;;
69203;SDS011;56317;27.658;85.326;2023-11-21T05:43:37;29.25;;;12.95;;
69203;SDS011;56317;27.658;85.326;2023-11-21T05:46:09;26.90;;;12.38;;
69203;SDS011;56317;27.658;85.326;2023-11-21T05:48:36;22.73;;;10.43;;
69203;SDS011;56317;27.658;85.326;2023-11-21T05:51:04;15.85;;;9.93;;
69203;SDS011;56317;27.658;85.326;2023-11-21T05:53:32;18.92;;;10.30;;
69203;SDS011;56317;27.658;85.326;2023-11-21T05:55:59;19.90;;;9.80;;
69203;SDS011;56317;27.658;85.326;2023-11-21T05:58:28;18.88;;;10.88;;
69203;SDS011;56317;27.658;85.326;2023-11-21T06:00:55;15.32;;;9.10;;
69203;SDS011;56317;27.658;85.326;2023-11-21T06:03:23;13.35;;;8.98;;
69203;SDS011;56317;27.658;85.326;2023-11-21T06:05:51;15.45;;;8.13;;
69203;SDS011;56317;27.658;85.326;2023-11-21T06:08:19;18.50;;;7.93;;
69203;SDS011;56317;27.658;85.326;2023-11-21T06:10:46;12.80;;;7.63;;
69203;SDS011;56317;27.658;85.326;2023-11-21T06:13:14;16.42;;;6.78;;
69203;SDS011;56317;27.658;85.326;2023-11-21T06:15:42;14.85;;;8.13;;
69203;SDS011;56317;27.658;85.326;2023-11-21T06:18:09;13.23;;;6.00;;
69203;SDS011;56317;27.658;85.326;2023-11-21T06:20:36;9.40;;;5.63;;
69203;SDS011;56317;27.658;85.326;2023-11-21T06:23:04;11.35;;;5.72;;
69203;SDS011;56317;27.658;85.326;2023-11-21T06:25:32;10.85;;;6.47;;
69203;SDS011;56317;27.658;85.326;2023-11-21T06:28:01;13.23;;;6.35;;
69203;SDS011;56317;27.658;85.326;2023-11-21T06:30:28;13.38;;;6.47;;
69203;SDS011;56317;27.658;85.326;2023-11-21T06:32:55;12.00;;;6.35;;
69203;SDS011;56317;27.658;85.326;2023-11-21T06:35:23;11.43;;;6.13;;
69203;SDS011;56317;27.658;85.326;2023-11-21T06:37:50;12.88;;;5.43;;
69203;SDS011;56317;27.658;85.326;2023-11-21T06:40:17;14.10;;;5.40;;
69203;SDS011;56317;27.658;85.326;2023-11-21T06:42:45;19.27;;;6.90;;
69203;SDS011;56317;27.658;85.326;2023-11-21T06:45:12;14.02;;;7.68;;
69203;SDS011;56317;27.658;85.326;2023-11-21T06:47:40;13.70;;;7.90;;
69203;SDS011;56317;27.658;85.326;2023-11-21T06:50:08;13.43;;;8.60;;
69203;SDS011;56317;27.658;85.326;2023-11-21T06:52:37;20.23;;;10.30;;
69203;SDS011;56317;27.658;85.326;2023-11-21T06:55:04;15.38;;;9.65;;
69203;SDS011;56317;27.658;85.326;2023-11-21T06:57:33;16.50;;;8.73;;
69203;SDS011;56317;27.658;85.326;2023-11-21T07:00:01;15.43;;;8.38;;
69203;SDS011;56317;27.658;85.326;2023-11-21T07:02:28;15.48;;;8.55;;
69203;SDS011;56317;27.658;85.326;2023-11-21T07:04:55;21.75;;;8.52;;
69203;SDS011;56317;27.658;85.326;2023-11-21T07:07:22;17.73;;;8.40;;
69203;SDS011;56317;27.658;85.326;2023-11-21T07:09:49;12.10;;;6.95;;
69203;SDS011;56317;27.658;85.326;2023-11-21T07:12:17;14.57;;;7.55;;
69203;SDS011;56317;27.658;85.326;2023-11-21T07:14:44;13.50;;;6.43;;
69203;SDS011;56317;27.658;85.326;2023-11-21T07:17:12;15.65;;;7.05;;
69203;SDS011;56317;27.658;85.326;2023-11-21T07:19:39;11.35;;;6.18;;
69203;SDS011;56317;27.658;85.326;2023-11-21T07:22:07;22.85;;;7.80;;
69203;SDS011;56317;27.658;85.326;2023-11-21T07:24:34;17.10;;;7.22;;
69203;SDS011;56317;27.658;85.326;2023-11-21T07:27:02;16.73;;;6.53;;
69203;SDS011;56317;27.658;85.326;2023-11-21T07:29:31;13.55;;;6.25;;
69203;SDS011;56317;27.658;85.326;2023-11-21T07:31:58;17.55;;;5.70;;
69203;SDS011;56317;27.658;85.326;2023-11-21T07:34:26;15.50;;;5.75;;
69203;SDS011;56317;27.658;85.326;2023-11-21T07:36:53;10.02;;;6.15;;
69203;SDS011;56317;27.658;85.326;2023-11-21T07:39:20;17.25;;;5.40;;
69203;SDS011;56317;27.658;85.326;2023-11-21T07:41:47;9.00;;;5.80;;
69203;SDS011;56317;27.658;85.326;2023-11-21T07:44:16;10.23;;;5.53;;
69203;SDS011;56317;27.658;85.326;2023-11-21T07:46:44;16.23;;;5.90;;
69203;SDS011;56317;27.658;85.326;2023-11-21T07:49:12;13.35;;;5.35;;
69203;SDS011;56317;27.658;85.326;2023-11-21T07:51:45;8.43;;;5.25;;
69203;SDS011;56317;27.658;85.326;2023-11-21T07:54:15;12.75;;;5.38;;
69203;SDS011;56317;27.658;85.326;2023-11-21T07:56:42;13.48;;;5.93;;
69203;SDS011;56317;27.658;85.326;2023-11-21T07:59:11;10.45;;;5.80;;
69203;SDS011;56317;27.658;85.326;2023-11-21T08:01:39;10.07;;;5.50;;
69203;SDS011;56317;27.658;85.326;2023-11-21T08:04:08;9.88;;;5.40;;
69203;SDS011;56317;27.658;85.326;2023-11-21T08:06:36;11.60;;;5.28;;
69203;SDS011;56317;27.658;85.326;2023-11-21T08:09:04;13.27;;;5.65;;
69203;SDS011;56317;27.658;85.326;2023-11-21T08:11:31;13.05;;;5.80;;
69203;SDS011;56317;27.658;85.326;2023-11-21T08:13:59;11.77;;;5.18;;
69203;SDS011;56317;27.658;85.326;2023-11-21T08:16:26;10.88;;;5.15;;
69203;SDS011;56317;27.658;85.326;2023-11-21T08:18:53;10.27;;;5.47;;
69203;SDS011;56317;27.658;85.326;2023-11-21T08:34:32;9.48;;;5.43;;
69203;SDS011;56317;27.658;85.326;2023-11-21T08:37:00;12.02;;;5.88;;
69203;SDS011;56317;27.658;85.326;2023-11-21T08:39:27;13.75;;;5.47;;
69203;SDS011;56317;27.658;85.326;2023-11-21T08:41:56;15.57;;;5.90;;
69203;SDS011;56317;27.658;85.326;2023-11-21T08:44:24;14.00;;;5.97;;
69203;SDS011;56317;27.658;85.326;2023-11-21T08:46:52;9.32;;;5.97;;
69203;SDS011;56317;27.658;85.326;2023-11-21T08:49:19;14.60;;;6.60;;
69203;SDS011;56317;27.658;85.326;2023-11-21T08:51:46;14.20;;;6.30;;
69203;SDS011;56317;27.658;85.326;2023-11-21T08:54:13;9.70;;;5.45;;
69203;SDS011;56317;27.658;85.326;2023-11-21T08:56:43;13.75;;;6.18;;
69203;SDS011;56317;27.658;85.326;2023-11-21T08:59:10;8.05;;;5.20;;
69203;SDS011;56317;27.658;85.326;2023-11-21T09:01:40;11.55;;;5.47;;
69203;SDS011;56317;27.658;85.326;2023-11-21T09:04:07;15.77;;;6.63;;
69203;SDS011;56317;27.658;85.326;2023-11-21T09:06:34;14.50;;;6.38;;
69203;SDS011;56317;27.658;85.326;2023-11-21T09:09:02;12.65;;;6.07;;
69203;SDS011;56317;27.658;85.326;2023-11-21T09:11:34;11.77;;;5.90;;
69203;SDS011;56317;27.658;85.326;2023-11-21T09:14:02;14.73;;;7.28;;
69203;SDS011;56317;27.658;85.326;2023-11-21T09:16:29;21.58;;;8.15;;
69203;SDS011;56317;27.658;85.326;2023-11-21T09:18:57;10.93;;;6.40;;
69203;SDS011;56317;27.658;85.326;2023-11-21T09:21:24;24.08;;;9.95;;
69203;SDS011;56317;27.658;85.326;2023-11-21T09:23:53;19.00;;;10.40;;
69203;SDS011;56317;27.658;85.326;2023-11-21T09:26:20;72.13;;;36.88;;
69203;SDS011;56317;27.658;85.326;2023-11-21T09:28:47;63.92;;;29.35;;
69203;SDS011;56317;27.658;85.326;2023-11-21T09:31:14;31.80;;;15.00;;
69203;SDS011;56317;27.658;85.326;2023-11-21T09:33:44;20.27;;;10.05;;
69203;SDS011;56317;27.658;85.326;2023-11-21T09:36:13;29.25;;;10.95;;
69203;SDS011;56317;27.658;85.326;2023-11-21T09:38:41;15.82;;;7.65;;
69203;SDS011;56317;27.658;85.326;2023-11-21T09:41:10;19.80;;;8.18;;
69203;SDS011;56317;27.658;85.326;2023-11-21T09:43:47;22.58;;;11.05;;
69203;SDS011;56317;27.658;85.326;2023-11-21T09:46:18;32.60;;;15.85;;
69203;SDS011;56317;27.658;85.326;2023-11-21T09:48:50;25.55;;;10.77;;
69203;SDS011;56317;27.658;85.326;2023-11-21T09:51:19;29.40;;;12.55;;
69203;SDS011;56317;27.658;85.326;2023-11-21T09:53:49;43.72;;;16.02;;
69203;SDS011;56317;27.658;85.326;2023-11-21T09:56:19;20.92;;;9.63;;
69203;SDS011;56317;27.658;85.326;2023-11-21T09:58:53;30.10;;;12.60;;
69203;SDS011;56317;27.658;85.326;2023-11-21T10:01:22;50.60;;;15.73;;
69203;SDS011;56317;27.658;85.326;2023-11-21T10:03:51;25.80;;;10.55;;
69203;SDS011;56317;27.658;85.326;2023-11-21T10:06:20;26.40;;;11.52;;
69203;SDS011;56317;27.658;85.326;2023-11-21T10:08:47;32.28;;;12.73;;
69203;SDS011;56317;27.658;85.326;2023-11-21T10:11:16;23.55;;;10.38;;
69203;SDS011;56317;27.658;85.326;2023-11-21T10:13:46;31.90;;;12.55;;
69203;SDS011;56317;27.658;85.326;2023-11-21T10:16:14;33.10;;;13.18;;
69203;SDS011;56317;27.658;85.326;2023-11-21T10:18:48;36.10;;;14.23;;
69203;SDS011;56317;27.658;85.326;2023-11-21T10:21:18;29.95;;;12.55;;
69203;SDS011;56317;27.658;85.326;2023-11-21T10:23:45;60.30;;;16.92;;
69203;SDS011;56317;27.658;85.326;2023-11-21T10:26:14;39.22;;;14.50;;
69203;SDS011;56317;27.658;85.326;2023-11-21T10:28:57;34.92;;;11.50;;
69203;SDS011;56317;27.658;85.326;2023-11-21T10:31:31;36.47;;;13.45;;
69203;SDS011;56317;27.658;85.326;2023-11-21T10:34:13;28.67;;;13.15;;
69203;SDS011;56317;27.658;85.326;2023-11-21T10:37:20;24.80;;;12.55;;
69203;SDS011;56317;27.658;85.326;2023-11-21T10:39:47;24.60;;;12.13;;
69203;SDS011;56317;27.658;85.326;2023-11-21T10:42:17;33.05;;;12.90;;
69203;SDS011;56317;27.658;85.326;2023-11-21T10:45:05;50.22;;;15.02;;
69203;SDS011;56317;27.658;85.326;2023-11-21T10:47:42;38.35;;;15.23;;
69203;SDS011;56317;27.658;85.326;2023-11-21T10:50:10;41.70;;;15.40;;
69203;SDS011;56317;27.658;85.326;2023-11-21T10:52:39;35.42;;;14.60;;
69203;SDS011;56317;27.658;85.326;2023-11-21T10:55:20;43.88;;;16.67;;
69203;SDS011;56317;27.658;85.326;2023-11-21T10:57:51;33.72;;;16.15;;
69203;SDS011;56317;27.658;85.326;2023-11-21T11:00:20;40.65;;;15.98;;
69203;SDS011;56317;27.658;85.326;2023-11-21T11:02:51;42.05;;;17.08;;
69203;SDS011;56317;27.658;85.326;2023-11-21T11:05:23;49.50;;;18.08;;
69203;SDS011;56317;27.658;85.326;2023-11-21T11:08:32;37.45;;;16.00;;
69203;SDS011;56317;27.658;85.326;2023-11-21T11:11:01;42.45;;;16.58;;
69203;SDS011;56317;27.658;85.326;2023-11-21T11:13:28;44.88;;;18.05;;
69203;SDS011;56317;27.658;85.326;2023-11-21T11:16:00;32.30;;;14.35;;
69203;SDS011;56317;27.658;85.326;2023-11-21T11:18:34;33.78;;;14.90;;
69203;SDS011;56317;27.658;85.326;2023-11-21T11:21:07;42.33;;;15.70;;
69203;SDS011;56317;27.658;85.326;2023-11-21T11:32:33;24.98;;;12.48;;
69203;SDS011;56317;27.658;85.326;2023-11-21T11:35:26;41.33;;;16.58;;
69203;SDS011;56317;27.658;85.326;2023-11-21T11:37:56;31.20;;;13.82;;
69203;SDS011;56317;27.658;85.326;2023-11-21T11:40:25;35.28;;;16.83;;
69203;SDS011;56317;27.658;85.326;2023-11-21T11:43:10;40.42;;;17.38;;
69203;SDS011;56317;27.658;85.326;2023-11-21T11:45:37;32.42;;;16.83;;
69203;SDS011;56317;27.658;85.326;2023-11-21T11:48:08;33.60;;;16.73;;
69203;SDS011;56317;27.658;85.326;2023-11-21T11:51:03;34.45;;;17.15;;
69203;SDS011;56317;27.658;85.326;2023-11-21T11:53:40;41.78;;;17.55;;
69203;SDS011;56317;27.658;85.326;2023-11-21T11:58:52;45.33;;;20.13;;
69203;SDS011;56317;27.658;85.326;2023-11-21T12:01:20;41.78;;;18.10;;
69203;SDS011;56317;27.658;85.326;2023-11-21T12:06:43;35.75;;;17.15;;
69203;SDS011;56317;27.658;85.326;2023-11-21T12:09:19;35.03;;;16.70;;
69203;SDS011;56317;27.658;85.326;2023-11-21T12:11:52;63.33;;;21.60;;
69203;SDS011;56317;27.658;85.326;2023-11-21T12:14:23;44.92;;;19.75;;
69203;SDS011;56317;27.658;85.326;2023-11-21T12:16:51;43.88;;;20.73;;
69203;SDS011;56317;27.658;85.326;2023-11-21T12:19:18;46.72;;;21.30;;
69203;SDS011;56317;27.658;85.326;2023-11-21T12:21:46;82.97;;;32.55;;
69203;SDS011;56317;27.658;85.326;2023-11-21T12:24:14;67.03;;;27.15;;
69203;SDS011;56317;27.658;85.326;2023-11-21T12:26:46;54.10;;;24.38;;
69203;SDS011;56317;27.658;85.326;2023-11-21T12:29:14;49.00;;;25.00;;
69203;SDS011;56317;27.658;85.326;2023-11-21T12:31:42;57.05;;;25.52;;
69203;SDS011;56317;27.658;85.326;2023-11-21T12:34:10;61.97;;;29.65;;
69203;SDS011;56317;27.658;85.326;2023-11-21T12:36:39;60.03;;;28.42;;
69203;SDS011;56317;27.658;85.326;2023-11-21T12:39:06;61.70;;;28.63;;
69203;SDS011;56317;27.658;85.326;2023-11-21T12:41:35;79.18;;;31.58;;
69203;SDS011;56317;27.658;85.326;2023-11-21T12:44:02;72.25;;;32.55;;
69203;SDS011;56317;27.658;85.326;2023-11-21T12:46:29;61.85;;;28.88;;
69203;SDS011;56317;27.658;85.326;2023-11-21T12:48:58;68.88;;;30.25;;
69203;SDS011;56317;27.658;85.326;2023-11-21T12:51:26;78.65;;;32.92;;
69203;SDS011;56317;27.658;85.326;2023-11-21T12:53:54;72.32;;;31.48;;
69203;SDS011;56317;27.658;85.326;2023-11-21T12:56:22;64.22;;;31.13;;
69203;SDS011;56317;27.658;85.326;2023-11-21T12:58:49;70.28;;;30.70;;
69203;SDS011;56317;27.658;85.326;2023-11-21T13:01:17;72.43;;;31.58;;
69203;SDS011;56317;27.658;85.326;2023-11-21T13:03:47;64.72;;;30.23;;
69203;SDS011;56317;27.658;85.326;2023-11-21T13:06:17;69.10;;;32.50;;
69203;SDS011;56317;27.658;85.326;2023-11-21T13:08:47;72.70;;;32.50;;
69203;SDS011;56317;27.658;85.326;2023-11-21T13:11:14;79.68;;;33.05;;
69203;SDS011;56317;27.658;85.326;2023-11-21T13:13:41;73.85;;;33.22;;
69203;SDS011;56317;27.658;85.326;2023-11-21T13:16:09;81.50;;;34.15;;
69203;SDS011;56317;27.658;85.326;2023-11-21T13:18:36;79.90;;;36.50;;
69203;SDS011;56317;27.658;85.326;2023-11-21T13:21:07;85.13;;;37.80;;
69203;SDS011;56317;27.658;85.326;2023-11-21T13:23:39;88.75;;;35.78;;
69203;SDS011;56317;27.658;85.326;2023-11-21T13:26:07;94.70;;;38.20;;
69203;SDS011;56317;27.658;85.326;2023-11-21T13:28:35;100.95;;;39.38;;
69203;SDS011;56317;27.658;85.326;2023-11-21T13:31:11;89.60;;;37.90;;
69203;SDS011;56317;27.658;85.326;2023-11-21T13:33:52;81.05;;;37.65;;
69203;SDS011;56317;27.658;85.326;2023-11-21T13:36:24;78.35;;;38.13;;
69203;SDS011;56317;27.658;85.326;2023-11-21T13:38:55;90.40;;;40.50;;
69203;SDS011;56317;27.658;85.326;2023-11-21T13:41:24;89.95;;;38.55;;
69203;SDS011;56317;27.658;85.326;2023-11-21T13:43:56;83.47;;;35.95;;
69203;SDS011;56317;27.658;85.326;2023-11-21T13:46:41;82.72;;;35.25;;
69203;SDS011;56317;27.658;85.326;2023-11-21T13:49:08;88.13;;;38.33;;
69203;SDS011;56317;27.658;85.326;2023-11-21T13:51:36;87.82;;;37.10;;
69203;SDS011;56317;27.658;85.326;2023-11-21T13:54:16;84.32;;;35.90;;
69203;SDS011;56317;27.658;85.326;2023-11-21T13:56:43;88.03;;;37.17;;
69203;SDS011;56317;27.658;85.326;2023-11-21T13:59:14;78.20;;;34.25;;
69203;SDS011;56317;27.658;85.326;2023-11-21T14:01:52;86.53;;;36.60;;
69203;SDS011;56317;27.658;85.326;2023-11-21T14:04:25;83.45;;;35.00;;
69203;SDS011;56317;27.658;85.326;2023-11-21T14:06:55;83.85;;;36.42;;
69203;SDS011;56317;27.658;85.326;2023-11-21T14:09:26;79.40;;;36.95;;
69203;SDS011;56317;27.658;85.326;2023-11-21T14:12:01;81.88;;;34.10;;
69203;SDS011;56317;27.658;85.326;2023-11-21T14:14:31;76.63;;;36.20;;
69203;SDS011;56317;27.658;85.326;2023-11-21T14:16:59;90.72;;;38.83;;
69203;SDS011;56317;27.658;85.326;2023-11-21T14:19:32;85.00;;;36.80;;
69203;SDS011;56317;27.658;85.326;2023-11-21T14:22:02;81.65;;;33.58;;
69203;SDS011;56317;27.658;85.326;2023-11-21T14:24:29;86.05;;;38.28;;
69203;SDS011;56317;27.658;85.326;2023-11-21T14:26:57;84.88;;;35.85;;
69203;SDS011;56317;27.658;85.326;2023-11-21T14:29:28;94.65;;;42.05;;
69203;SDS011;56317;27.658;85.326;2023-11-21T14:31:55;93.22;;;40.25;;
69203;SDS011;56317;27.658;85.326;2023-11-21T14:34:23;90.43;;;40.30;;
69203;SDS011;56317;27.658;85.326;2023-11-21T14:36:52;97.80;;;40.75;;
69203;SDS011;56317;27.658;85.326;2023-11-21T14:39:20;77.10;;;33.28;;
69203;SDS011;56317;27.658;85.326;2023-11-21T14:41:53;81.32;;;37.72;;
69203;SDS011;56317;27.658;85.326;2023-11-21T14:44:25;90.32;;;38.65;;
69203;SDS011;56317;27.658;85.326;2023-11-21T14:46:58;91.72;;;38.15;;
69203;SDS011;56317;27.658;85.326;2023-11-21T14:49:25;88.65;;;38.88;;
69203;SDS011;56317;27.658;85.326;2023-11-21T14:52:00;97.05;;;39.15;;